Time;durP1;ratioP1;P1;durP2;ratioP2;P2;SDS_P1;SDS_P2;PMS_P1;PMS_P2;Temp;Humidity;BMP_temperature;BMP_pressure;BME280_temperature;BME280_humidity;BME280_pressure;Samples;Min_cycle;Max_cycle;Signal;HPM_P1;HPM_P2
2021/10/04 00:00:39;;;;;;;1.55;1.20;;;;;;;;;;5068687;28;20055;-62
2021/10/04 00:03:05;;;;;;;2.28;1.60;;;;;;;;;;5069486;28;20473;-62
2021/10/04 00:05:30;;;;;;;2.20;1.60;;;;;;;;;;5068887;28;20067;-62
2021/10/04 00:07:56;;;;;;;1.73;1.30;;;;;;;;;;5069195;28;20350;-62
2021/10/04 00:10:21;;;;;;;1.80;1.30;;;;;;;;;;5067576;28;20100;-62
2021/10/04 00:12:47;;;;;;;1.63;1.25;;;;;;;;;;5069128;28;20055;-62
2021/10/04 00:15:15;;;;;;;1.70;1.30;;;;;;;;;;5067408;28;20029;-62
2021/10/04 00:17:41;;;;;;;1.90;1.40;;;;;;;;;;5066505;28;20032;-62
2021/10/04 00:20:09;;;;;;;1.80;1.23;;;;;;;;;;5068847;28;20044;-62
2021/10/04 00:22:35;;;;;;;2.15;1.63;;;;;;;;;;5068699;28;20032;-62
2021/10/04 00:25:02;;;;;;;1.65;1.13;;;;;;;;;;5067181;28;20519;-62
2021/10/04 00:27:27;;;;;;;1.88;1.38;;;;;;;;;;5069142;28;20374;-62
2021/10/04 00:29:53;;;;;;;1.60;1.10;;;;;;;;;;5068811;28;20036;-62
2021/10/04 00:32:18;;;;;;;2.17;1.25;;;;;;;;;;5068607;28;20029;-62
2021/10/04 00:34:43;;;;;;;1.58;1.23;;;;;;;;;;5067791;28;20028;-62
2021/10/04 00:37:09;;;;;;;2.10;1.60;;;;;;;;;;5069472;28;20020;-62
2021/10/04 00:39:35;;;;;;;2.00;1.40;;;;;;;;;;5070795;28;20020;-62
2021/10/04 00:42:00;;;;;;;2.00;1.35;;;;;;;;;;5071576;28;20854;-62
2021/10/04 00:44:26;;;;;;;1.70;1.25;;;;;;;;;;5071777;28;20045;-63
2021/10/04 00:46:52;;;;;;;1.80;1.30;;;;;;;;;;5072427;28;20458;-63
2021/10/04 00:49:17;;;;;;;1.80;1.35;;;;;;;;;;5072095;28;20043;-62
2021/10/04 00:51:43;;;;;;;1.73;1.20;;;;;;;;;;5071798;28;20063;-62
2021/10/04 00:54:08;;;;;;;2.00;1.42;;;;;;;;;;5070378;28;20525;-62
2021/10/04 00:56:34;;;;;;;1.70;1.23;;;;;;;;;;5070994;28;20158;-64
2021/10/04 00:59:00;;;;;;;2.10;1.60;;;;;;;;;;5066294;28;20041;-63
2021/10/04 01:01:28;;;;;;;1.80;1.30;;;;;;;;;;5071958;28;20024;-63
2021/10/04 01:03:55;;;;;;;1.50;1.10;;;;;;;;;;5071444;28;20472;-63
2021/10/04 01:06:22;;;;;;;1.98;1.40;;;;;;;;;;5071496;28;20025;-63
2021/10/04 01:08:47;;;;;;;1.95;1.40;;;;;;;;;;5070892;28;20047;-62
2021/10/04 01:11:13;;;;;;;1.90;1.38;;;;;;;;;;5070760;28;20048;-62
2021/10/04 01:13:38;;;;;;;1.63;1.10;;;;;;;;;;5070920;28;20169;-63
2021/10/04 01:16:05;;;;;;;2.15;1.55;;;;;;;;;;5070306;28;20124;-64
2021/10/04 01:18:30;;;;;;;1.83;1.35;;;;;;;;;;5071414;28;20467;-63
2021/10/04 01:20:56;;;;;;;1.83;1.33;;;;;;;;;;5064645;28;20028;-63
2021/10/04 01:23:22;;;;;;;1.80;1.40;;;;;;;;;;5070345;28;20434;-63
2021/10/04 01:25:47;;;;;;;1.90;1.38;;;;;;;;;;5071026;28;20116;-63
2021/10/04 01:28:13;;;;;;;1.67;1.33;;;;;;;;;;5071435;28;20033;-63
2021/10/04 01:30:38;;;;;;;1.95;1.45;;;;;;;;;;5070400;28;20032;-63
2021/10/04 01:33:04;;;;;;;1.73;1.25;;;;;;;;;;5071010;28;20123;-63
2021/10/04 01:35:29;;;;;;;2.35;1.77;;;;;;;;;;5071121;28;20153;-63
2021/10/04 01:37:55;;;;;;;1.73;1.27;;;;;;;;;;5070385;28;20032;-63
2021/10/04 01:40:20;;;;;;;2.35;1.73;;;;;;;;;;5069589;28;20033;-63
2021/10/04 01:42:47;;;;;;;2.00;1.40;;;;;;;;;;5070730;28;20036;-63
2021/10/04 01:45:22;;;;;;;1.90;1.42;;;;;;;;;;5070983;28;20042;-63
2021/10/04 01:47:48;;;;;;;1.95;1.48;;;;;;;;;;5070887;28;20028;-63
2021/10/04 01:50:15;;;;;;;1.95;1.40;;;;;;;;;;5068798;28;20209;-63
2021/10/04 01:52:41;;;;;;;2.70;1.85;;;;;;;;;;5069874;28;20032;-63
2021/10/04 01:55:08;;;;;;;3.33;1.58;;;;;;;;;;5070746;28;20040;-62
2021/10/04 01:57:33;;;;;;;2.00;1.50;;;;;;;;;;5070643;28;20101;-63
2021/10/04 02:00:02;;;;;;;1.98;1.42;;;;;;;;;;5070261;28;20423;-63
2021/10/04 02:02:28;;;;;;;1.92;1.48;;;;;;;;;;5070545;28;20032;-63
2021/10/04 02:04:54;;;;;;;2.50;1.35;;;;;;;;;;5070049;28;20036;-63
2021/10/04 02:07:20;;;;;;;2.15;1.63;;;;;;;;;;5069731;28;20036;-63
2021/10/04 02:09:47;;;;;;;2.40;1.60;;;;;;;;;;5070427;28;20098;-63
2021/10/04 02:12:14;;;;;;;1.95;1.40;;;;;;;;;;5070952;28;20523;-63
2021/10/04 02:14:40;;;;;;;1.92;1.50;;;;;;;;;;5069604;28;20081;-62
2021/10/04 02:17:05;;;;;;;1.90;1.40;;;;;;;;;;5061765;28;20115;-62
2021/10/04 02:19:31;;;;;;;2.38;1.70;;;;;;;;;;5070480;28;20613;-63
2021/10/04 02:22:00;;;;;;;2.72;1.70;;;;;;;;;;5068225;28;20041;-63
2021/10/04 02:24:28;;;;;;;1.70;1.25;;;;;;;;;;5064542;28;20369;-62
2021/10/04 02:26:54;;;;;;;1.85;1.38;;;;;;;;;;5069888;28;20025;-63
2021/10/04 02:29:19;;;;;;;2.53;1.88;;;;;;;;;;5070027;28;20047;-62
2021/10/04 02:31:44;;;;;;;2.17;1.48;;;;;;;;;;5068367;28;20032;-62
2021/10/04 02:34:10;;;;;;;2.58;2.00;;;;;;;;;;5070350;28;20114;-63
2021/10/04 02:36:36;;;;;;;2.22;1.55;;;;;;;;;;5068802;28;20052;-63
2021/10/04 02:39:01;;;;;;;2.63;1.50;;;;;;;;;;5068777;28;20040;-63
2021/10/04 02:41:27;;;;;;;2.03;1.40;;;;;;;;;;5068825;28;20166;-63
2021/10/04 02:43:52;;;;;;;2.42;1.50;;;;;;;;;;5068276;28;20024;-63
2021/10/04 02:46:17;;;;;;;2.45;1.63;;;;;;;;;;5064120;28;20032;-65
2021/10/04 02:48:43;;;;;;;2.20;1.70;;;;;;;;;;5069159;28;20032;-63
2021/10/04 02:51:09;;;;;;;1.88;1.48;;;;;;;;;;5070119;28;20028;-63
2021/10/04 02:53:34;;;;;;;1.65;1.20;;;;;;;;;;5062525;28;20047;-63
2021/10/04 02:56:00;;;;;;;2.35;1.80;;;;;;;;;;5068879;28;20492;-63
2021/10/04 02:58:25;;;;;;;2.03;1.45;;;;;;;;;;5069177;28;20051;-63
2021/10/04 03:00:50;;;;;;;2.08;1.58;;;;;;;;;;5069231;28;20038;-63
2021/10/04 03:03:16;;;;;;;1.90;1.33;;;;;;;;;;5069802;28;20033;-63
2021/10/04 03:05:41;;;;;;;2.08;1.42;;;;;;;;;;5069842;28;20025;-65
2021/10/04 03:08:07;;;;;;;2.35;1.85;;;;;;;;;;5069211;28;20412;-63
2021/10/04 03:10:34;;;;;;;8.90;1.98;;;;;;;;;;5068782;28;20035;-62
2021/10/04 03:13:00;;;;;;;2.45;1.70;;;;;;;;;;5067219;28;20043;-63
2021/10/04 03:15:25;;;;;;;2.85;2.10;;;;;;;;;;5067936;28;20024;-63
2021/10/04 03:17:51;;;;;;;3.00;1.77;;;;;;;;;;5069755;28;20060;-63
2021/10/04 03:20:16;;;;;;;3.15;2.28;;;;;;;;;;5068952;28;20066;-62
2021/10/04 03:22:42;;;;;;;2.35;1.75;;;;;;;;;;5069832;28;20025;-63
2021/10/04 03:25:09;;;;;;;2.58;1.85;;;;;;;;;;5068983;28;20037;-63
2021/10/04 03:27:34;;;;;;;1.85;1.30;;;;;;;;;;5069141;28;20052;-63
2021/10/04 03:30:00;;;;;;;2.40;1.80;;;;;;;;;;5069756;28;20071;-64
2021/10/04 03:32:25;;;;;;;3.60;1.83;;;;;;;;;;5069312;28;20056;-63
2021/10/04 03:34:51;;;;;;;2.60;1.85;;;;;;;;;;5069505;28;20603;-63
2021/10/04 03:37:16;;;;;;;2.17;1.73;;;;;;;;;;5068060;28;20025;-63
2021/10/04 03:39:43;;;;;;;2.35;1.75;;;;;;;;;;5067330;28;20036;-63
2021/10/04 03:42:08;;;;;;;2.55;1.80;;;;;;;;;;5068178;28;20378;-63
2021/10/04 03:44:34;;;;;;;2.35;1.83;;;;;;;;;;5068609;28;20036;-63
2021/10/04 03:46:59;;;;;;;2.10;1.50;;;;;;;;;;5068366;28;20115;-64
2021/10/04 03:49:25;;;;;;;2.28;1.58;;;;;;;;;;5068771;28;20048;-64
2021/10/04 03:51:51;;;;;;;3.22;2.40;;;;;;;;;;5069570;28;20020;-64
2021/10/04 03:54:17;;;;;;;2.40;1.75;;;;;;;;;;5069057;28;20029;-62
2021/10/04 03:56:43;;;;;;;3.42;2.15;;;;;;;;;;5068042;28;20420;-64
2021/10/04 03:59:09;;;;;;;2.00;1.50;;;;;;;;;;5069152;28;20040;-65
2021/10/04 04:01:34;;;;;;;2.67;2.03;;;;;;;;;;5068444;28;20079;-64
2021/10/04 04:03:59;;;;;;;2.58;1.98;;;;;;;;;;5069370;28;20024;-64
2021/10/04 04:06:25;;;;;;;3.15;2.42;;;;;;;;;;5068496;28;20060;-64
2021/10/04 04:08:50;;;;;;;5.38;2.28;;;;;;;;;;5062288;28;20028;-64
2021/10/04 04:11:16;;;;;;;3.05;2.28;;;;;;;;;;5066479;28;20048;-64
2021/10/04 04:13:41;;;;;;;2.55;2.03;;;;;;;;;;5072491;28;20045;-64
2021/10/04 04:16:07;;;;;;;2.42;1.65;;;;;;;;;;5071896;28;20063;-64
2021/10/04 04:18:32;;;;;;;2.40;1.80;;;;;;;;;;5072100;28;20029;-64
2021/10/04 04:20:58;;;;;;;2.13;1.50;;;;;;;;;;5072914;28;20039;-64
2021/10/04 04:23:23;;;;;;;2.38;1.70;;;;;;;;;;5072559;28;20032;-64
2021/10/04 04:25:49;;;;;;;2.30;1.63;;;;;;;;;;5071939;28;20021;-64
2021/10/04 04:28:14;;;;;;;3.45;2.05;;;;;;;;;;5071146;28;20040;-66
2021/10/04 04:30:40;;;;;;;2.70;1.92;;;;;;;;;;5068373;28;20412;-67
2021/10/04 04:33:05;;;;;;;2.45;1.83;;;;;;;;;;5070139;28;20036;-65
2021/10/04 04:35:31;;;;;;;2.78;2.20;;;;;;;;;;5072150;28;20093;-67
2021/10/04 04:37:56;;;;;;;2.20;1.60;;;;;;;;;;5072516;28;20025;-66
2021/10/04 04:40:21;;;;;;;2.70;2.00;;;;;;;;;;5071294;28;20056;-66
2021/10/04 04:42:47;;;;;;;2.20;1.65;;;;;;;;;;5072078;28;20040;-65
2021/10/04 04:45:18;;;;;;;2.58;1.83;;;;;;;;;;5072123;28;20089;-66
2021/10/04 04:47:44;;;;;;;2.13;1.63;;;;;;;;;;5070780;28;20052;-66
2021/10/04 04:50:11;;;;;;;2.55;1.77;;;;;;;;;;5072121;28;20036;-66
2021/10/04 04:52:37;;;;;;;2.13;1.55;;;;;;;;;;5071984;28;20028;-64
2021/10/04 04:55:04;;;;;;;2.88;2.00;;;;;;;;;;5070752;28;20047;-67
2021/10/04 04:57:29;;;;;;;2.55;1.98;;;;;;;;;;5069099;28;20059;-67
2021/10/04 04:59:54;;;;;;;6.45;2.85;;;;;;;;;;5071882;28;20028;-67
2021/10/04 05:02:20;;;;;;;2.50;2.03;;;;;;;;;;5071258;28;20065;-65
2021/10/04 05:04:45;;;;;;;2.60;1.92;;;;;;;;;;5071888;28;20025;-67
2021/10/04 05:07:11;;;;;;;3.92;2.30;;;;;;;;;;5071763;28;20047;-67
2021/10/04 05:09:37;;;;;;;2.65;1.85;;;;;;;;;;5068825;28;20488;-67
2021/10/04 05:12:04;;;;;;;3.08;2.53;;;;;;;;;;5069799;28;20067;-65
2021/10/04 05:14:29;;;;;;;2.42;1.80;;;;;;;;;;5069895;28;20139;-67
2021/10/04 05:16:55;;;;;;;2.65;2.05;;;;;;;;;;5071249;28;20509;-65
2021/10/04 05:19:20;;;;;;;2.40;1.70;;;;;;;;;;5069629;28;20461;-67
2021/10/04 05:21:46;;;;;;;2.55;1.92;;;;;;;;;;5065884;28;20342;-66
2021/10/04 05:24:12;;;;;;;2.40;1.88;;;;;;;;;;5069532;28;20021;-67
2021/10/04 05:26:38;;;;;;;2.63;1.95;;;;;;;;;;5069162;28;20031;-66
2021/10/04 05:29:03;;;;;;;4.35;2.88;;;;;;;;;;5068650;28;20566;-68
2021/10/04 05:31:29;;;;;;;2.53;1.85;;;;;;;;;;5070512;28;20041;-67
2021/10/04 05:33:55;;;;;;;2.80;2.00;;;;;;;;;;5069214;28;20032;-67
2021/10/04 05:36:21;;;;;;;2.67;2.10;;;;;;;;;;5066426;28;20032;-69
2021/10/04 05:38:46;;;;;;;3.33;2.15;;;;;;;;;;5069282;28;20927;-68
2021/10/04 05:41:13;;;;;;;3.13;2.20;;;;;;;;;;5070999;28;20390;-66
2021/10/04 05:43:38;;;;;;;3.45;2.15;;;;;;;;;;5068727;28;20024;-68
2021/10/04 05:46:04;;;;;;;2.22;1.67;;;;;;;;;;5070566;28;20032;-68
2021/10/04 05:48:29;;;;;;;3.00;2.22;;;;;;;;;;5065352;28;20033;-70
2021/10/04 05:50:54;;;;;;;2.75;2.35;;;;;;;;;;5068776;28;20082;-70
2021/10/04 05:53:20;;;;;;;5.50;2.67;;;;;;;;;;5070048;28;20040;-70
2021/10/04 05:55:47;;;;;;;2.65;2.13;;;;;;;;;;5070113;28;20041;-70
2021/10/04 05:58:13;;;;;;;2.45;1.88;;;;;;;;;;5070308;28;20052;-69
2021/10/04 06:00:39;;;;;;;3.10;2.30;;;;;;;;;;5068963;28;20033;-69
2021/10/04 06:03:04;;;;;;;2.47;2.00;;;;;;;;;;5069765;28;20098;-68
2021/10/04 06:05:30;;;;;;;3.70;2.40;;;;;;;;;;5069761;28;20024;-69
2021/10/04 06:07:55;;;;;;;2.08;1.50;;;;;;;;;;5068549;28;20024;-64
2021/10/04 06:10:20;;;;;;;2.58;1.98;;;;;;;;;;5069125;28;20538;-64
2021/10/04 06:12:46;;;;;;;3.28;2.45;;;;;;;;;;5069866;28;20572;-64
2021/10/04 06:15:13;;;;;;;3.65;2.72;;;;;;;;;;5069323;28;20036;-63
2021/10/04 06:17:40;;;;;;;4.25;2.22;;;;;;;;;;5067451;28;20036;-63
2021/10/04 06:20:07;;;;;;;2.10;1.58;;;;;;;;;;5068295;28;20072;-65
2021/10/04 06:22:32;;;;;;;2.42;1.63;;;;;;;;;;5064124;28;20515;-64
2021/10/04 06:24:58;;;;;;;2.53;1.80;;;;;;;;;;5069008;28;20071;-64
2021/10/04 06:27:23;;;;;;;2.30;1.73;;;;;;;;;;5069307;28;20036;-64
2021/10/04 06:29:49;;;;;;;2.95;2.08;;;;;;;;;;5068578;28;20101;-64
2021/10/04 06:32:14;;;;;;;3.63;2.88;;;;;;;;;;5068076;28;20051;-64
2021/10/04 06:34:40;;;;;;;2.15;1.45;;;;;;;;;;5068129;28;20103;-64
2021/10/04 06:37:05;;;;;;;4.38;2.03;;;;;;;;;;5064301;28;20040;-65
2021/10/04 06:39:31;;;;;;;3.47;2.22;;;;;;;;;;5069477;28;20373;-64
2021/10/04 06:41:56;;;;;;;2.15;1.63;;;;;;;;;;5069409;28;20036;-65
2021/10/04 06:44:22;;;;;;;3.88;1.95;;;;;;;;;;5065903;28;20036;-66
2021/10/04 06:46:47;;;;;;;9.20;2.08;;;;;;;;;;5065440;28;20119;-65
2021/10/04 06:49:13;;;;;;;2.35;1.88;;;;;;;;;;5064379;28;20315;-66
2021/10/04 06:51:38;;;;;;;2.75;1.77;;;;;;;;;;5067001;28;20510;-67
2021/10/04 06:54:04;;;;;;;2.15;1.55;;;;;;;;;;5068162;28;20073;-66
2021/10/04 06:56:31;;;;;;;2.47;1.60;;;;;;;;;;5066503;28;20389;-67
2021/10/04 06:58:57;;;;;;;2.60;1.90;;;;;;;;;;5068162;28;20055;-66
2021/10/04 07:01:22;;;;;;;2.13;1.73;;;;;;;;;;5066666;28;20024;-66
2021/10/04 07:03:48;;;;;;;2.60;1.92;;;;;;;;;;5066307;28;20046;-65
2021/10/04 07:06:13;;;;;;;2.60;1.77;;;;;;;;;;5063376;28;20079;-66
2021/10/04 07:08:39;;;;;;;2.15;1.45;;;;;;;;;;5067910;28;20458;-66
2021/10/04 07:11:04;;;;;;;2.28;1.75;;;;;;;;;;5069199;28;20115;-66
2021/10/04 07:13:30;;;;;;;2.25;1.67;;;;;;;;;;5069105;28;20121;-65
2021/10/04 07:15:55;;;;;;;2.30;1.83;;;;;;;;;;5069863;28;20222;-66
2021/10/04 07:18:21;;;;;;;2.65;1.80;;;;;;;;;;5069714;28;20571;-65
2021/10/04 07:20:47;;;;;;;2.60;1.90;;;;;;;;;;5069407;28;20028;-66
2021/10/04 07:23:13;;;;;;;2.70;2.03;;;;;;;;;;5068957;28;20024;-66
2021/10/04 07:25:38;;;;;;;2.80;1.77;;;;;;;;;;5069407;28;20702;-65
2021/10/04 07:28:05;;;;;;;2.50;1.80;;;;;;;;;;5069633;28;20032;-66
2021/10/04 07:30:31;;;;;;;1.95;1.42;;;;;;;;;;5068420;28;20060;-63
2021/10/04 07:32:59;;;;;;;2.13;1.52;;;;;;;;;;5069442;28;20398;-66
2021/10/04 07:35:26;;;;;;;1.98;1.50;;;;;;;;;;5067551;28;20472;-66
2021/10/04 07:37:51;;;;;;;3.40;2.50;;;;;;;;;;5068488;28;20121;-65
2021/10/04 07:40:17;;;;;;;2.35;1.55;;;;;;;;;;5068371;28;20088;-65
2021/10/04 07:42:43;;;;;;;2.67;2.00;;;;;;;;;;5069249;28;20044;-66
2021/10/04 07:45:09;;;;;;;7.95;2.58;;;;;;;;;;5069519;28;20141;-67
2021/10/04 07:47:35;;;;;;;1.88;1.30;;;;;;;;;;5071669;28;20170;-67
2021/10/04 07:50:00;;;;;;;2.58;1.80;;;;;;;;;;5072577;28;20115;-67
2021/10/04 07:52:26;;;;;;;2.28;1.65;;;;;;;;;;5073289;28;20048;-67
2021/10/04 07:54:52;;;;;;;2.03;1.45;;;;;;;;;;5067037;28;20035;-67
2021/10/04 07:57:17;;;;;;;2.10;1.45;;;;;;;;;;5072974;28;20036;-67
2021/10/04 07:59:43;;;;;;;2.42;1.85;;;;;;;;;;5072853;28;20024;-66
2021/10/04 08:02:09;;;;;;;2.42;1.70;;;;;;;;;;5073346;28;20598;-67
2021/10/04 08:04:36;;;;;;;2.58;1.98;;;;;;;;;;5071895;28;20051;-67
2021/10/04 08:07:03;;;;;;;2.45;1.75;;;;;;;;;;5073434;28;20884;-67
2021/10/04 08:09:28;;;;;;;3.40;2.10;;;;;;;;;;5063670;28;20036;-67
2021/10/04 08:11:54;;;;;;;3.10;2.28;;;;;;;;;;5063756;28;20047;-68
2021/10/04 08:14:20;;;;;;;2.45;1.85;;;;;;;;;;5069577;28;20039;-67
2021/10/04 08:16:45;;;;;;;3.13;2.28;;;;;;;;;;5068146;28;20032;-67
2021/10/04 08:19:11;;;;;;;2.70;2.10;;;;;;;;;;5068950;28;20166;-67
2021/10/04 08:21:36;;;;;;;2.90;2.25;;;;;;;;;;5065386;28;20044;-68
2021/10/04 08:24:02;;;;;;;2.97;2.25;;;;;;;;;;5060987;28;20153;-68
2021/10/04 08:26:28;;;;;;;2.70;2.05;;;;;;;;;;5067130;28;20032;-68
2021/10/04 08:28:54;;;;;;;2.58;1.95;;;;;;;;;;5064674;28;20032;-67
2021/10/04 08:31:21;;;;;;;2.75;2.13;;;;;;;;;;5066290;28;20039;-67
2021/10/04 08:33:47;;;;;;;2.53;1.88;;;;;;;;;;5065253;28;20102;-67
2021/10/04 08:36:13;;;;;;;2.65;1.83;;;;;;;;;;5065077;28;20212;-67
2021/10/04 08:38:38;;;;;;;3.58;2.75;;;;;;;;;;5067116;28;20178;-67
2021/10/04 08:41:03;;;;;;;2.85;2.10;;;;;;;;;;5069522;28;20089;-67
2021/10/04 08:43:30;;;;;;;5.13;2.10;;;;;;;;;;5068590;28;20631;-67
2021/10/04 08:45:59;;;;;;;3.15;2.20;;;;;;;;;;5069592;28;20583;-66
2021/10/04 08:48:26;;;;;;;2.90;2.33;;;;;;;;;;5067298;28;20047;-66
2021/10/04 08:50:54;;;;;;;3.38;2.47;;;;;;;;;;5068241;28;20051;-66
2021/10/04 08:53:20;;;;;;;2.60;1.92;;;;;;;;;;5068615;28;20048;-65
2021/10/04 08:55:45;;;;;;;3.30;2.42;;;;;;;;;;5069215;28;20032;-65
2021/10/04 08:58:12;;;;;;;2.88;2.22;;;;;;;;;;5068546;28;20037;-65
2021/10/04 09:00:38;;;;;;;5.63;2.53;;;;;;;;;;5067689;28;20048;-65
2021/10/04 09:03:05;;;;;;;2.55;1.90;;;;;;;;;;5068445;28;20036;-64
2021/10/04 09:05:31;;;;;;;3.10;2.30;;;;;;;;;;5067218;28;20103;-64
2021/10/04 09:08:02;;;;;;;2.90;1.65;;;;;;;;;;5069311;28;20048;-64
2021/10/04 09:10:31;;;;;;;2.58;1.75;;;;;;;;;;5066520;28;20036;-63
2021/10/04 09:13:05;;;;;;;3.15;2.17;;;;;;;;;;5062926;28;20056;-64
2021/10/04 09:15:38;;;;;;;3.55;2.40;;;;;;;;;;5066938;28;20036;-63
2021/10/04 09:18:09;;;;;;;2.65;2.08;;;;;;;;;;5065859;28;20111;-64
2021/10/04 09:20:53;;;;;;;2.65;2.05;;;;;;;;;;5068990;28;20154;-64
2021/10/04 09:23:52;;;;;;;3.72;2.53;;;;;;;;;;5068305;28;20047;-64
2021/10/04 09:26:27;;;;;;;3.75;2.45;;;;;;;;;;5024827;28;20059;-64
2021/10/04 09:29:04;;;;;;;3.65;2.55;;;;;;;;;;5061206;28;20169;-64
2021/10/04 09:31:38;;;;;;;3.03;2.38;;;;;;;;;;5068400;28;20032;-63
2021/10/04 09:34:20;;;;;;;7.80;2.47;;;;;;;;;;5067818;28;20089;-64
2021/10/04 09:36:48;;;;;;;2.83;2.15;;;;;;;;;;5067801;28;20040;-63
2021/10/04 09:39:24;;;;;;;3.13;2.42;;;;;;;;;;5063065;28;20040;-63
2021/10/04 09:42:04;;;;;;;3.15;2.30;;;;;;;;;;5064601;28;20039;-63
2021/10/04 09:44:48;;;;;;;2.80;2.00;;;;;;;;;;5063071;28;20025;-63
2021/10/04 09:47:24;;;;;;;3.05;2.30;;;;;;;;;;5068427;28;20083;-63
2021/10/04 09:50:16;;;;;;;2.65;1.95;;;;;;;;;;5068619;28;20462;-64
2021/10/04 09:52:52;;;;;;;2.80;2.00;;;;;;;;;;5064872;28;20040;-63
2021/10/04 09:55:31;;;;;;;3.05;2.13;;;;;;;;;;5068187;28;20043;-63
2021/10/04 09:58:08;;;;;;;2.90;1.80;;;;;;;;;;5068415;28;20044;-63
2021/10/04 10:00:41;;;;;;;2.95;2.20;;;;;;;;;;5067828;28;20040;-63
2021/10/04 10:03:08;;;;;;;4.28;2.90;;;;;;;;;;5067579;28;20531;-63
2021/10/04 10:05:37;;;;;;;3.33;2.60;;;;;;;;;;5066915;28;20139;-63
2021/10/04 10:08:04;;;;;;;3.38;2.50;;;;;;;;;;5066495;28;20540;-64
2021/10/04 10:10:29;;;;;;;3.15;2.20;;;;;;;;;;5066324;28;20036;-63
2021/10/04 10:12:55;;;;;;;3.53;2.53;;;;;;;;;;5061883;28;20039;-63
2021/10/04 10:15:41;;;;;;;4.35;3.38;;;;;;;;;;5057588;28;20037;-63
2021/10/04 10:18:14;;;;;;;3.97;2.70;;;;;;;;;;5064768;28;20114;-62
2021/10/04 10:20:41;;;;;;;4.30;3.05;;;;;;;;;;5064915;28;20598;-63
2021/10/04 10:23:08;;;;;;;5.70;2.83;;;;;;;;;;5067220;28;20051;-63
2021/10/04 10:25:42;;;;;;;4.13;2.42;;;;;;;;;;5060733;28;20478;-64
2021/10/04 10:28:33;;;;;;;4.03;3.22;;;;;;;;;;5067438;28;20078;-63
2021/10/04 10:31:05;;;;;;;2.63;2.00;;;;;;;;;;5113238;27;20349;-63
2021/10/04 10:33:49;;;;;;;2.65;1.83;;;;;;;;;;5110144;28;20456;-63
2021/10/04 10:36:18;;;;;;;3.47;2.63;;;;;;;;;;5102598;28;20028;-63
2021/10/04 10:38:57;;;;;;;4.00;2.53;;;;;;;;;;5105133;28;20475;-62
2021/10/04 10:41:23;;;;;;;3.03;2.35;;;;;;;;;;5101517;28;20100;-63
2021/10/04 10:44:02;;;;;;;2.55;1.90;;;;;;;;;;5100791;28;20077;-63
2021/10/04 10:46:49;;;;;;;4.07;2.60;;;;;;;;;;5106610;28;20130;-64
2021/10/04 10:49:53;;;;;;;3.35;2.17;;;;;;;;;;5101540;28;20488;-62
2021/10/04 10:52:23;;;;;;;3.47;2.35;;;;;;;;;;5099420;28;20447;-62
2021/10/04 10:54:49;;;;;;;6.13;2.65;;;;;;;;;;5100923;28;20145;-62
2021/10/04 10:57:15;;;;;;;2.97;2.38;;;;;;;;;;5101182;28;20043;-62
2021/10/04 10:59:40;;;;;;;3.35;2.70;;;;;;;;;;5101339;28;20036;-61
2021/10/04 11:02:26;;;;;;;3.83;2.50;;;;;;;;;;5102248;28;20036;-62
2021/10/04 11:04:51;;;;;;;3.28;2.50;;;;;;;;;;5103265;28;20031;-61
2021/10/04 11:07:54;;;;;;;2.97;2.30;;;;;;;;;;5101731;28;20051;-61
2021/10/04 11:10:19;;;;;;;2.30;1.70;;;;;;;;;;5105124;28;20643;-63
2021/10/04 11:13:07;;;;;;;2.95;2.15;;;;;;;;;;5099279;28;20028;-62
2021/10/04 11:15:33;;;;;;;2.78;1.85;;;;;;;;;;5100954;28;20042;-63
2021/10/04 11:17:58;;;;;;;2.55;1.90;;;;;;;;;;5100520;28;20036;-61
2021/10/04 11:20:24;;;;;;;2.38;1.58;;;;;;;;;;5101504;27;20028;-62
2021/10/04 11:22:49;;;;;;;2.20;1.58;;;;;;;;;;5102347;28;20065;-61
2021/10/04 11:25:16;;;;;;;2.97;2.20;;;;;;;;;;5084817;28;20350;-62
2021/10/04 11:27:48;;;;;;;2.30;1.60;;;;;;;;;;5100562;28;20042;-63
2021/10/04 11:30:14;;;;;;;2.30;1.67;;;;;;;;;;5099874;28;20043;-63
2021/10/04 11:32:40;;;;;;;1.88;1.42;;;;;;;;;;5096892;28;20034;-62
2021/10/04 11:35:15;;;;;;;2.17;1.60;;;;;;;;;;5099958;28;20043;-61
2021/10/04 11:37:41;;;;;;;2.13;1.60;;;;;;;;;;5098796;28;20036;-61
2021/10/04 11:40:07;;;;;;;2.10;1.58;;;;;;;;;;5095030;28;20043;-61
2021/10/04 11:42:33;;;;;;;2.17;1.55;;;;;;;;;;5087971;28;20629;-60
2021/10/04 11:45:04;;;;;;;2.33;1.63;;;;;;;;;;5087201;28;20039;-61
2021/10/04 11:47:29;;;;;;;2.65;1.52;;;;;;;;;;5091977;28;20050;-60
2021/10/04 11:49:55;;;;;;;2.85;1.90;;;;;;;;;;5085266;28;20040;-60
2021/10/04 11:52:24;;;;;;;2.13;1.58;;;;;;;;;;5087808;28;20036;-62
2021/10/04 11:54:52;;;;;;;3.72;1.83;;;;;;;;;;5084025;28;20031;-61
2021/10/04 11:57:20;;;;;;;2.55;1.98;;;;;;;;;;5085368;28;20050;-63
2021/10/04 12:00:20;;;;;;;2.15;1.73;;;;;;;;;;5071413;28;20370;-63
2021/10/04 12:02:47;;;;;;;2.13;1.58;;;;;;;;;;5087679;28;20377;-62
2021/10/04 12:05:22;;;;;;;2.75;2.03;;;;;;;;;;5087075;28;20430;-62
2021/10/04 12:08:09;;;;;;;2.60;1.73;;;;;;;;;;5088473;28;20055;-62
2021/10/04 12:10:40;;;;;;;2.72;1.80;;;;;;;;;;5086842;28;20485;-62
2021/10/04 12:13:08;;;;;;;2.50;1.95;;;;;;;;;;5100391;27;20076;-61
2021/10/04 12:15:34;;;;;;;2.88;2.22;;;;;;;;;;5084816;28;20046;-62
2021/10/04 12:17:59;;;;;;;2.55;1.85;;;;;;;;;;5090568;28;20104;-62
2021/10/04 12:20:25;;;;;;;3.13;2.22;;;;;;;;;;5094567;28;20050;-62
2021/10/04 12:22:50;;;;;;;2.10;1.52;;;;;;;;;;5087784;28;20050;-63
2021/10/04 12:25:30;;;;;;;2.40;1.77;;;;;;;;;;5091463;28;20040;-62
2021/10/04 12:28:05;;;;;;;2.03;1.38;;;;;;;;;;5090968;28;20096;-62
2021/10/04 12:30:47;;;;;;;2.40;1.70;;;;;;;;;;5085129;28;20114;-63
2021/10/04 12:33:13;;;;;;;3.35;1.67;;;;;;;;;;5092061;28;20027;-63
2021/10/04 12:35:38;;;;;;;2.50;1.50;;;;;;;;;;5088818;28;20047;-61
2021/10/04 12:38:08;;;;;;;4.47;1.50;;;;;;;;;;5086683;28;20052;-62
2021/10/04 12:40:40;;;;;;;3.03;1.70;;;;;;;;;;5089383;28;20032;-62
2021/10/04 12:43:17;;;;;;;2.17;1.40;;;;;;;;;;5092326;28;20051;-62
2021/10/04 12:45:59;;;;;;;2.50;1.40;;;;;;;;;;5088137;28;20062;-62
2021/10/04 12:48:26;;;;;;;2.38;1.63;;;;;;;;;;5083452;28;20848;-62
2021/10/04 12:51:04;;;;;;;2.00;1.38;;;;;;;;;;5092192;28;20036;-62
2021/10/04 12:53:30;;;;;;;2.10;1.42;;;;;;;;;;5085714;28;20051;-62
2021/10/04 12:56:02;;;;;;;2.20;1.83;;;;;;;;;;5109697;27;20036;-62
2021/10/04 12:58:30;;;;;;;2.60;1.67;;;;;;;;;;5068522;28;20088;-61
2021/10/04 13:01:08;;;;;;;2.20;1.60;;;;;;;;;;5074834;28;20035;-62
2021/10/04 13:03:57;;;;;;;2.00;1.50;;;;;;;;;;5089488;28;20074;-63
2021/10/04 13:06:28;;;;;;;2.20;1.60;;;;;;;;;;5087527;28;20040;-62
2021/10/04 13:08:54;;;;;;;1.95;1.40;;;;;;;;;;5092757;28;20064;-63
2021/10/04 13:11:20;;;;;;;2.30;1.90;;;;;;;;;;5099521;28;20074;-62
2021/10/04 13:13:46;;;;;;;2.03;1.60;;;;;;;;;;5089076;28;20522;-62
2021/10/04 13:16:12;;;;;;;2.00;1.40;;;;;;;;;;5091802;28;20044;-62
2021/10/04 13:18:38;;;;;;;2.22;1.63;;;;;;;;;;5085853;28;20365;-62
2021/10/04 13:21:04;;;;;;;2.00;1.50;;;;;;;;;;5104201;27;20027;-62
2021/10/04 13:23:30;;;;;;;1.90;1.45;;;;;;;;;;5090563;28;20033;-62
2021/10/04 13:25:57;;;;;;;2.10;1.70;;;;;;;;;;5087859;28;20094;-62
2021/10/04 13:28:25;;;;;;;2.00;1.48;;;;;;;;;;5085259;28;20031;-61
2021/10/04 13:30:51;;;;;;;2.10;1.45;;;;;;;;;;5089629;28;20175;-61
2021/10/04 13:33:17;;;;;;;1.75;1.40;;;;;;;;;;5074113;28;20034;-62
2021/10/04 13:35:42;;;;;;;2.13;1.50;;;;;;;;;;5078298;28;20024;-61
2021/10/04 13:38:08;;;;;;;2.17;1.58;;;;;;;;;;5072765;28;20131;-62
2021/10/04 13:40:33;;;;;;;2.63;1.77;;;;;;;;;;5087099;28;20043;-61
2021/10/04 13:43:02;;;;;;;1.83;1.40;;;;;;;;;;5087461;28;20380;-62
2021/10/04 13:45:27;;;;;;;2.38;1.67;;;;;;;;;;5089654;28;20035;-61
2021/10/04 13:47:54;;;;;;;2.10;1.63;;;;;;;;;;5071728;28;20038;-61
2021/10/04 13:50:20;;;;;;;1.98;1.48;;;;;;;;;;5083671;28;20057;-61
2021/10/04 13:52:47;;;;;;;1.85;1.25;;;;;;;;;;5091500;28;20035;-61
2021/10/04 13:55:13;;;;;;;2.00;1.55;;;;;;;;;;5110587;27;20113;-61
2021/10/04 13:57:38;;;;;;;2.10;1.55;;;;;;;;;;5090646;28;20085;-61
2021/10/04 14:00:08;;;;;;;2.00;1.50;;;;;;;;;;5091272;28;20031;-61
2021/10/04 14:02:34;;;;;;;2.10;1.50;;;;;;;;;;5085548;28;20659;-61
2021/10/04 14:05:00;;;;;;;2.50;1.83;;;;;;;;;;5084179;28;20126;-61
2021/10/04 14:07:26;;;;;;;3.03;2.00;;;;;;;;;;5091625;28;20111;-61
2021/10/04 14:09:51;;;;;;;2.40;1.95;;;;;;;;;;5084331;28;20158;-61
2021/10/04 14:12:16;;;;;;;2.00;1.40;;;;;;;;;;5091798;28;20056;-61
2021/10/04 14:14:42;;;;;;;2.00;1.30;;;;;;;;;;5087761;28;20027;-62
2021/10/04 14:17:07;;;;;;;2.17;1.52;;;;;;;;;;5090015;28;20115;-62
2021/10/04 14:19:33;;;;;;;2.03;1.50;;;;;;;;;;5090280;28;20057;-63
2021/10/04 14:21:58;;;;;;;2.28;1.70;;;;;;;;;;5088964;28;20027;-62
2021/10/04 14:24:24;;;;;;;2.22;1.55;;;;;;;;;;5085155;28;20457;-62
2021/10/04 14:26:49;;;;;;;2.20;1.60;;;;;;;;;;5089296;28;20039;-62
2021/10/04 14:29:15;;;;;;;2.45;1.77;;;;;;;;;;5090126;28;20097;-63
2021/10/04 14:31:41;;;;;;;2.50;1.73;;;;;;;;;;5086017;28;20512;-62
2021/10/04 14:34:06;;;;;;;1.98;1.40;;;;;;;;;;5089946;28;20058;-63
2021/10/04 14:36:32;;;;;;;2.85;2.13;;;;;;;;;;5090208;28;20092;-63
2021/10/04 14:38:57;;;;;;;1.90;1.35;;;;;;;;;;5073826;28;20655;-62
2021/10/04 14:41:25;;;;;;;2.50;1.88;;;;;;;;;;5090497;28;20029;-63
2021/10/04 14:43:50;;;;;;;1.92;1.42;;;;;;;;;;5092202;28;20113;-62
2021/10/04 14:46:16;;;;;;;3.22;1.80;;;;;;;;;;5084756;28;20024;-62